地図

経路データ

SID SEASON NUMBER BASIN SUBBASIN NAME ISO_TIME NATURE LAT LON WMO_WIND WMO_PRES WMO_AGENCY TRACK_TYPE DIST2LAND LANDFALL IFLAG USA_AGENCY USA_ATCF_ID USA_LAT USA_LON USA_RECORD USA_STATUS USA_WIND USA_PRES USA_SSHS USA_R34_NE USA_R34_SE USA_R34_SW USA_R34_NW USA_R50_NE USA_R50_SE USA_R50_SW USA_R50_NW USA_R64_NE USA_R64_SE USA_R64_SW USA_R64_NW USA_POCI USA_ROCI USA_RMW USA_EYE TOKYO_LAT TOKYO_LON TOKYO_GRADE TOKYO_WIND TOKYO_PRES TOKYO_R50_DIR TOKYO_R50_LONG TOKYO_R50_SHORT TOKYO_R30_DIR TOKYO_R30_LONG TOKYO_R30_SHORT TOKYO_LAND CMA_LAT CMA_LON CMA_CAT CMA_WIND CMA_PRES HKO_LAT HKO_LON HKO_CAT HKO_WIND HKO_PRES NEWDELHI_LAT NEWDELHI_LON NEWDELHI_GRADE NEWDELHI_WIND NEWDELHI_PRES NEWDELHI_CI NEWDELHI_DP NEWDELHI_POCI REUNION_LAT REUNION_LON REUNION_TYPE REUNION_WIND REUNION_PRES REUNION_TNUM REUNION_CI REUNION_RMW REUNION_R34_NE REUNION_R34_SE REUNION_R34_SW REUNION_R34_NW REUNION_R50_NE REUNION_R50_SE REUNION_R50_SW REUNION_R50_NW REUNION_R64_NE REUNION_R64_SE REUNION_R64_SW REUNION_R64_NW BOM_LAT BOM_LON BOM_TYPE BOM_WIND BOM_PRES BOM_TNUM BOM_CI BOM_RMW BOM_R34_NE BOM_R34_SE BOM_R34_SW BOM_R34_NW BOM_R50_NE BOM_R50_SE BOM_R50_SW BOM_R50_NW BOM_R64_NE BOM_R64_SE BOM_R64_SW BOM_R64_NW BOM_ROCI BOM_POCI BOM_EYE BOM_POS_METHOD BOM_PRES_METHOD NADI_LAT NADI_LON NADI_CAT NADI_WIND NADI_PRES WELLINGTON_LAT WELLINGTON_LON WELLINGTON_WIND WELLINGTON_PRES DS824_LAT DS824_LON DS824_STAGE DS824_WIND DS824_PRES TD9636_LAT TD9636_LON TD9636_STAGE TD9636_WIND TD9636_PRES TD9635_LAT TD9635_LON TD9635_WIND TD9635_PRES TD9635_ROCI NEUMANN_LAT NEUMANN_LON NEUMANN_CLASS NEUMANN_WIND NEUMANN_PRES MLC_LAT MLC_LON MLC_CLASS MLC_WIND MLC_PRES USA_GUST BOM_GUST BOM_GUST_PER REUNION_GUST REUNION_GUST_PER USA_SEAHGT USA_SEARAD_NE USA_SEARAD_SE USA_SEARAD_SW USA_SEARAD_NW STORM_SPEED STORM_DIR
1997202N04152 1997 57 WP MM TINA 1997-07-21 00:00:00 NR 4.30000 152.300 main 799 799 O_____________ jtwc_wp WP121997 4.30000 152.300 15 -1 10 307
1997202N04152 1997 57 WP MM TINA 1997-07-21 03:00:00 NR 4.61006 151.888 main 825 824 P_____________ WP121997 4.61006 151.888 15 -1 10 307
1997202N04152 1997 57 WP MM TINA 1997-07-21 06:00:00 NR 4.90000 151.500 main 854 853 O_____________ jtwc_wp WP121997 4.90000 151.500 15 -1 9 307
1997202N04152 1997 57 WP MM TINA 1997-07-21 09:00:00 NR 5.15745 151.150 main 885 885 P_____________ WP121997 5.15745 151.150 15 -1 9 306
1997202N04152 1997 57 WP MM TINA 1997-07-21 12:00:00 NR 5.40000 150.800 main 907 907 O_____________ jtwc_wp WP121997 5.40000 150.800 15 -1 9 304
1997202N04152 1997 57 WP MM TINA 1997-07-21 15:00:00 NR 5.64999 150.407 main 925 925 P_____________ WP121997 5.64999 150.407 15 -1 9 302
1997202N04152 1997 57 WP MM TINA 1997-07-21 18:00:00 NR 5.90000 150.000 main 941 938 O_____________ jtwc_wp WP121997 5.90000 150.000 15 -1 10 302
1997202N04152 1997 57 WP MM TINA 1997-07-21 21:00:00 NR 6.16502 149.570 main 961 956 P_____________ WP121997 6.16502 149.570 15 -1 9 302
1997202N04152 1997 57 WP MM TINA 1997-07-22 00:00:00 NR 6.40000 149.200 main 973 971 O_____________ jtwc_wp WP121997 6.40000 149.200 15 -1 7 304
1997202N04152 1997 57 WP MM TINA 1997-07-22 03:00:00 NR 6.57244 148.970 main 991 989 P_____________ WP121997 6.57244 148.970 15 -1 5 307
1997202N04152 1997 57 WP MM TINA 1997-07-22 06:00:00 NR 6.70000 148.800 main 998 996 O_____________ jtwc_wp WP121997 6.70000 148.800 15 -1 4 303
1997202N04152 1997 57 WP MM TINA 1997-07-22 09:00:00 NR 6.81499 148.600 main 1006 1004 P_____________ WP121997 6.81499 148.600 15 -1 4 297
1997202N04152 1997 57 WP MM TINA 1997-07-22 12:00:00 NR 6.90000 148.400 main 1014 1013 O_____________ jtwc_wp WP121997 6.90000 148.400 15 -1 4 291
1997202N04152 1997 57 WP MM TINA 1997-07-22 15:00:00 NR 6.96499 148.200 main 1023 1021 P_____________ WP121997 6.96499 148.200 15 -1 4 284
1997202N04152 1997 57 WP MM TINA 1997-07-22 18:00:00 NR 7.00000 148.000 main 1021 1020 O_____________ jtwc_wp WP121997 7.00000 148.000 15 -1 4 276
1997202N04152 1997 57 WP MM TINA 1997-07-22 21:00:00 NR 7.00748 147.807 main 1020 1019 P_____________ WP121997 7.00748 147.807 17 -1 4 270
1997202N04152 1997 57 WP MM TINA 1997-07-23 00:00:00 NR 7.00000 147.600 main 1019 1019 O_____________ jtwc_wp WP121997 7.00000 147.600 20 -1 4 267
1997202N04152 1997 57 WP MM TINA 1997-07-23 03:00:00 NR 6.98497 147.372 main 1019 1019 P_____________ WP121997 6.98497 147.372 20 -1 5 270
1997202N04152 1997 57 WP MM TINA 1997-07-23 06:00:00 NR 7.00000 147.100 main 1019 1019 O_____________ jtwc_wp WP121997 7.00000 147.100 20 -1 6 279
1997202N04152 1997 57 WP MM TINA 1997-07-23 09:00:00 NR 7.07749 146.772 main 1030 1030 P_____________ WP121997 7.07749 146.772 20 -1 7 286
1997202N04152 1997 57 WP MM TINA 1997-07-23 12:00:00 NR 7.20000 146.400 main 1042 1042 O_____________ jtwc_wp WP121997 7.20000 146.400 20 -1 8 288
1997202N04152 1997 57 WP MM TINA 1997-07-23 15:00:00 NR 7.32750 146.000 main 1055 1055 P_____________ WP121997 7.32750 146.000 20 -1 9 291
1997202N04152 1997 57 WP MM TINA 1997-07-23 18:00:00 NR 7.50000 145.600 main 1081 1081 O_____________ jtwc_wp WP121997 7.50000 145.600 20 -1 9 299
1997202N04152 1997 57 WP MM TINA 1997-07-23 21:00:00 NR 7.73493 145.250 main 1109 1109 P_____________ WP121997 7.73493 145.250 20 -1 9 306
1997202N04152 1997 57 WP MM TINA 1997-07-24 00:00:00 NR 8.00000 144.900 main 1147 1147 O_____________ jtwc_wp WP121997 8.00000 144.900 20 -1 9 305
1997202N04152 1997 57 WP MM TINA 1997-07-24 03:00:00 NR 8.25002 144.492 main 1188 1188 P_____________ WP121997 8.25002 144.492 20 -1 9 302
1997202N04152 1997 57 WP MM TINA 1997-07-24 06:00:00 NR 8.50000 144.100 main 1219 1219 O_____________ jtwc_wp WP121997 8.50000 144.100 20 -1 9 306
1997202N04152 1997 57 WP MM TINA 1997-07-24 09:00:00 NR 8.75745 143.777 main 1260 1260 P_____________ WP121997 8.75745 143.777 20 -1 8 310
1997202N04152 1997 57 WP MM TINA 1997-07-24 12:00:00 NR 9.00000 143.500 main 1290 1290 O_____________ jtwc_wp WP121997 9.00000 143.500 20 -1 7 308
1997202N04152 1997 57 WP MM TINA 1997-07-24 15:00:00 NR 9.18500 143.220 main 1321 1321 P_____________ WP121997 9.18500 143.220 20 -1 6 309
1997202N04152 1997 57 WP MM TINA 1997-07-24 18:00:00 NR 9.40000 143.000 main 1342 1342 O_____________ jtwc_wp WP121997 9.40000 143.000 20 -1 6 328
1997202N04152 1997 57 WP MM TINA 1997-07-24 21:00:00 NR 9.72747 142.870 main 1369 1369 P_____________ WP121997 9.72747 142.870 20 -1 7 344
1997202N04152 1997 57 WP MM TINA 1997-07-25 00:00:00 NR 10.1000 142.800 main 1406 1406 O_____________ jtwc_wp WP121997 10.1000 142.800 20 -1 7 350
1997202N04152 1997 57 WP MM TINA 1997-07-25 03:00:00 NR 10.4500 142.735 main 1444 1434 P_____________ WP121997 10.4500 142.735 20 -1 7 352
1997202N04152 1997 57 WP MM TINA 1997-07-25 06:00:00 NR 10.8000 142.700 main 1476 1476 O_____________ jtwc_wp WP121997 10.8000 142.700 20 -1 7 355
1997202N04152 1997 57 WP MM TINA 1997-07-25 09:00:00 NR 11.1500 142.685 main 1507 1507 P_____________ WP121997 11.1500 142.685 20 -1 7 0
1997202N04152 1997 57 WP MM TINA 1997-07-25 12:00:00 NR 11.5000 142.700 main 1549 1549 O_____________ jtwc_wp WP121997 11.5000 142.700 20 -1 7 7
1997202N04152 1997 57 WP MM TINA 1997-07-25 15:00:00 NR 11.8575 142.765 main 1595 1595 P_____________ WP121997 11.8575 142.765 20 -1 7 8
1997202N04152 1997 57 WP MM TINA 1997-07-25 18:00:00 NR 12.2000 142.800 main 1627 1627 O_____________ jtwc_wp WP121997 12.2000 142.800 20 -1 7 357
1997202N04152 1997 57 WP MM TINA 1997-07-25 21:00:00 NR 12.5450 142.723 main 1656 1656 P_____________ WP121997 12.5450 142.723 17 -1 6 342
1997202N04152 1997 57 WP MM TINA 1997-07-26 00:00:00 NR 12.8000 142.600 main 1684 1684 O_____________ jtwc_wp WP121997 12.8000 142.600 15 -1 4 331
1997202N04152 1997 57 WP MM TINA 1997-07-26 03:00:00 NR 12.8950 142.522 main 1692 1689 P_____________ WP121997 12.8950 142.522 15 -1 2 297
1997202N04152 1997 57 WP MM TINA 1997-07-26 06:00:00 NR 12.9000 142.400 main 1689 1683 O_____________ jtwc_wp WP121997 12.9000 142.400 15 -1 3 273
1997202N04152 1997 57 WP MM TINA 1997-07-26 09:00:00 NR 12.9150 142.180 main 1683 1671 P_____________ WP121997 12.9150 142.180 15 -1 5 270
1997202N04152 1997 57 WP MM TINA 1997-07-26 12:00:00 NR 12.9000 141.900 main 1671 1658 O_____________ jtwc_wp WP121997 12.9000 141.900 15 -1 6 265
1997202N04152 1997 57 WP MM TINA 1997-07-26 15:00:00 NR 12.8650 141.608 main 1658 1636 P_____________ WP121997 12.8650 141.608 15 -1 6 260
1997202N04152 1997 57 WP MM TINA 1997-07-26 18:00:00 NR 12.8000 141.300 main 1636 1613 O_____________ jtwc_wp WP121997 12.8000 141.300 15 -1 6 254
1997202N04152 1997 57 WP MM TINA 1997-07-26 21:00:00 NR 12.6999 141.007 main 1613 1592 P_____________ WP121997 12.6999 141.007 15 -1 6 251
1997202N04152 1997 57 WP MM TINA 1997-07-27 00:00:00 NR 12.6000 140.700 main 1592 1570 O_____________ jtwc_wp WP121997 12.6000 140.700 15 -1 6 256
1997202N04152 1997 57 WP MM TINA 1997-07-27 03:00:00 NR 12.5424 140.380 main 1570 1552 P_____________ WP121997 12.5424 140.380 15 -1 7 262
1997202N04152 1997 57 WP MM TINA 1997-07-27 06:00:00 NR 12.5000 140.000 main 1552 1507 O_____________ jtwc_wp WP121997 12.5000 140.000 15 -1 8 263
1997202N04152 1997 57 WP MM TINA 1997-07-27 09:00:00 NR 12.4425 139.530 main 1497 1444 P_____________ WP121997 12.4425 139.530 15 -1 10 264
1997202N04152 1997 57 WP MM TINA 1997-07-27 12:00:00 NR 12.4000 139.000 main 1444 1391 O_____________ jtwc_wp WP121997 12.4000 139.000 15 -1 11 266
1997202N04152 1997 57 WP MM TINA 1997-07-27 15:00:00 NR 12.3774 138.457 main 1391 1327 P_____________ WP121997 12.3774 138.457 15 -1 11 270
1997202N04152 1997 57 WP MM TINA 1997-07-27 18:00:00 NR 12.4000 137.900 main 1327 1273 O_____________ jtwc_wp WP121997 12.4000 137.900 15 -1 11 274
1997202N04152 1997 57 WP MM TINA 1997-07-27 21:00:00 NR 12.4550 137.327 main 1263 1211 P_____________ WP121997 12.4550 137.327 15 -1 11 281
1997202N04152 1997 57 WP MM TINA 1997-07-28 00:00:00 NR 12.6000 136.800 main 1211 1171 O_____________ jtwc_wp WP121997 12.6000 136.800 15 -1 10 293
1997202N04152 1997 57 WP MM TINA 1997-07-28 03:00:00 NR 12.8550 136.340 main 1162 1134 P_____________ WP121997 12.8550 136.340 15 -1 10 308
1997202N04152 1997 57 WP MM TINA 1997-07-28 06:00:00 NR 13.2000 136.000 main 1136 1122 O_____________ jtwc_wp WP121997 13.2000 136.000 15 -1 9 324
1997202N04152 1997 57 WP MM TINA 1997-07-28 09:00:00 NR 13.5849 135.797 main 1125 1117 P_____________ WP121997 13.5849 135.797 20 -1 9 340
1997202N04152 1997 57 WP MM TINA 1997-07-28 12:00:00 NR 14.0000 135.700 main 1123 1120 O_____________ jtwc_wp WP121997 14.0000 135.700 25 -1 8 350
1997202N04152 1997 57 WP MM TINA 1997-07-28 15:00:00 NR 14.4150 135.642 main 1120 1120 P_____________ WP121997 14.4150 135.642 25 -1 8 353
1997202N04152 1997 57 WP MM TINA 1997-07-28 18:00:00 NR 14.8000 135.600 main 1130 1125 O_____________ jtwc_wp WP121997 14.8000 135.600 25 -1 7 350
1997202N04152 1997 57 WP MM TINA 1997-07-28 21:00:00 NR 15.1450 135.508 main 1128 1124 P_____________ WP121997 15.1450 135.508 25 -1 5 341
1997202N04152 1997 57 WP MM TINA 1997-07-29 00:00:00 TS 15.3000 135.420 1006 tokyo main 1124 1124 OO____________ jtwc_wp WP121997 15.4000 135.400 25 -1 14.9000 135.500 2 1006 0 0 0 2 329
1997202N04152 1997 57 WP MM TINA 1997-07-29 03:00:00 TS 15.3516 135.379 main 1127 1114 PP____________ WP121997 15.5525 135.315 25 -1 14.9500 135.508 2 1005 0 0 1 296
1997202N04152 1997 57 WP MM TINA 1997-07-29 06:00:00 TS 15.3429 135.329 1004 tokyo main 1114 1114 OO____________ jtwc_wp WP121997 15.6000 135.200 25 -1 15.0000 135.500 2 1004 0 0 0 1 252
1997202N04152 1997 57 WP MM TINA 1997-07-29 09:00:00 TS 15.3112 135.247 main 1104 1093 PP____________ WP121997 15.5725 135.030 25 -1 15.0500 135.465 2 1004 0 0 2 259
1997202N04152 1997 57 WP MM TINA 1997-07-29 12:00:00 TS 15.3000 135.100 1004 tokyo main 1093 1073 OO____________ jtwc_wp WP121997 15.5000 134.800 25 -1 15.1000 135.400 2 1004 0 0 0 3 270
1997202N04152 1997 57 WP MM TINA 1997-07-29 15:00:00 TS 15.3113 134.900 main 1073 1052 PP____________ WP121997 15.4576 134.493 25 -1 15.1650 135.308 2 1003 0 0 4 270
1997202N04152 1997 57 WP MM TINA 1997-07-29 18:00:00 TS 15.3000 134.700 1002 tokyo main 1052 1042 OO____________ jtwc_wp WP121997 15.4000 134.200 25 -1 15.2000 135.200 2 1002 0 0 0 3 259
1997202N04152 1997 57 WP MM TINA 1997-07-29 21:00:00 TS 15.2475 134.549 main 1028 1028 PP____________ WP121997 15.3225 134.005 25 -1 15.1725 135.092 2 1002 0 0 3 238
1997202N04152 1997 57 WP MM TINA 1997-07-30 00:00:00 TS 15.1500 134.450 1002 tokyo main 1028 1012 OO____________ jtwc_wp WP121997 15.2000 133.900 25 -1 15.1000 135.000 2 1002 0 0 0 3 213
1997202N04152 1997 57 WP MM TINA 1997-07-30 03:00:00 TS 15.0112 134.387 main 1012 1008 PP____________ WP121997 15.0225 133.847 27 -1 15.0000 134.927 2 1001 0 0 3 185
1997202N04152 1997 57 WP MM TINA 1997-07-30 06:00:00 TS 14.8500 134.400 1000 tokyo main 1008 1005 OO____________ jtwc_wp WP121997 14.8000 133.900 30 -1 14.9000 134.900 2 1000 0 0 0 3 161
1997202N04152 1997 57 WP MM TINA 1997-07-30 09:00:00 TS 14.7075 134.499 main 1013 1013 PP____________ WP121997 14.5500 134.070 30 -1 14.8650 134.927 2 1000 0 0 5 134
1997202N04152 1997 57 WP MM TINA 1997-07-30 12:00:00 TS 14.5111 134.767 1000 tokyo main 1039 1036 OO_O__________ jtwc_wp WP121997 14.3000 134.300 30 -1 14.8000 135.000 2 1000 0 0 0 14.2000 135.700 TD 30 1000 6 129
1997202N04152 1997 57 WP MM TINA 1997-07-30 15:00:00 TS 14.3210 134.995 main 1055 1055 PP_P__________ WP121997 14.0850 134.507 32 -1 14.6375 135.108 2 999 0 0 14.1600 135.745 TD 30 1000 6 133
1997202N04152 1997 57 WP MM TINA 1997-07-30 18:00:00 TS 14.1364 135.182 998 tokyo main 1072 1072 OO_O__________ jtwc_wp WP121997 13.9000 134.700 35 0 14.4000 135.200 2 998 0 0 0 14.1000 135.800 TD 30 1000 5 141
1997202N04152 1997 57 WP MM TINA 1997-07-30 21:00:00 TS 13.9400 135.315 main 1079 1079 PP_P__________ WP121997 13.7275 134.872 35 0 14.0850 135.207 2 998 0 0 14.0075 135.865 TD 30 1000 5 146
1997202N04152 1997 57 WP MM TINA 1997-07-31 00:00:00 TS 13.7385 135.454 998 tokyo main 1096 1093 OOOO__________ jtwc_wp WP121997 13.6000 135.000 35 0 13.8000 135.200 2 998 0 0 0 13.4000 136.500 1 29 1000 13.9000 135.900 TD 30 1000 3 152
1997202N04152 1997 57 WP MM TINA 1997-07-31 03:00:00 TS 13.6322 135.479 main 1093 1083 PPPP__________ WP121997 13.5350 135.065 35 0 13.6550 135.258 2 997 0 0 13.4603 135.963 1 31 999 13.7925 135.872 TD 30 1000 2 194
1997202N04152 1997 57 WP MM TINA 1997-07-31 06:00:00 TS 13.5800 135.420 35 996 tokyo main 1083 1070 OOOO__________ jtwc_wp WP121997 13.5000 135.100 35 0 13.6000 135.300 3 35 996 0 9 140 140 0 13.5000 135.500 2 34 998 13.7000 135.800 TD 30 1000 2 241
1997202N04152 1997 57 WP MM TINA 1997-07-31 09:00:00 TS 13.5481 135.326 main 1070 1070 PPPP__________ WP121997 13.4575 135.158 35 0 13.5850 135.265 3 35 996 0 9 140 140 13.5074 135.175 2 34 998 13.6425 135.708 TD 32 999 2 251
1997202N04152 1997 57 WP MM TINA 1997-07-31 12:00:00 TS 13.5250 135.250 35 996 tokyo main 1070 1059 OOOO__________ jtwc_wp WP121997 13.4000 135.200 35 0 13.6000 135.200 3 35 996 0 9 140 140 0 13.5000 135.000 2 34 998 13.6000 135.600 TS 35 998 1 241
1997202N04152 1997 57 WP MM TINA 1997-07-31 15:00:00 TS 13.4875 135.211 main 1059 1059 PPPP__________ WP121997 13.3000 135.223 37 0 13.6000 135.150 3 37 995 0 9 145 145 13.5000 134.963 2 36 996 13.5500 135.508 TS 37 996 1 224
1997202N04152 1997 57 WP MM TINA 1997-07-31 18:00:00 TS 13.4500 135.175 40 994 tokyo main 1059 1046 OOOO__________ jtwc_wp WP121997 13.2000 135.200 40 0 13.6000 135.100 3 40 994 0 9 150 150 0 13.5000 135.000 2 38 995 13.5000 135.400 TS 40 994 1 233
1997202N04152 1997 57 WP MM TINA 1997-07-31 21:00:00 TS 13.4156 135.115 main 1046 1035 PPPP__________ WP121997 13.1275 135.122 42 0 13.6000 135.058 3 40 993 0 9 155 155 13.4925 135.022 2 38 995 13.4425 135.257 TS 40 994 2 252
1997202N04152 1997 57 WP MM TINA 1997-08-01 00:00:00 TS 13.4000 135.025 40 992 tokyo main 1035 1025 OOOO__________ jtwc_wp WP121997 13.1000 135.000 45 0 13.6000 135.000 3 40 992 0 9 160 160 0 13.5000 135.000 2 38 995 13.4000 135.100 TS 40 994 2 270
1997202N04152 1997 57 WP MM TINA 1997-08-01 03:00:00 TS 13.4156 134.899 main 1025 1014 PPPP__________ WP121997 13.1350 134.865 45 0 13.5925 134.908 3 42 991 0 9 165 165 13.5425 134.865 2 41 992 13.3925 134.958 TS 40 994 3 281
1997202N04152 1997 57 WP MM TINA 1997-08-01 06:00:00 TS 13.4500 134.750 45 990 tokyo main 1017 996 OOOO__________ jtwc_wp WP121997 13.2000 134.700 45 0 13.6000 134.800 3 45 990 0 9 170 170 0 13.6000 134.700 2 44 990 13.4000 134.800 TS 40 994 3 285
1997202N04152 1997 57 WP MM TINA 1997-08-01 09:00:00 TS 13.4894 134.611 main 996 986 PPPP__________ WP121997 13.2500 134.500 47 0 13.6500 134.723 3 45 990 0 9 170 170 13.6575 134.607 2 44 990 13.4000 134.615 TS 42 992 3 284
1997202N04152 1997 57 WP MM TINA 1997-08-01 12:00:00 TS 13.5250 134.450 45 990 tokyo main 986 965 OOOO__________ jtwc_wp WP121997 13.3000 134.300 50 0 13.7000 134.600 3 45 990 0 9 170 170 0 13.7000 134.500 2 44 990 13.4000 134.400 TS 45 990 3 278
1997202N04152 1997 57 WP MM TINA 1997-08-01 15:00:00 TS 13.5337 134.266 main 965 933 PPPP__________ WP121997 13.3425 134.150 52 0 13.6999 134.402 3 45 990 0 9 170 170 13.6999 134.352 2 46 987 13.3925 134.157 TS 45 990 4 273
1997202N04152 1997 57 WP MM TINA 1997-08-01 18:00:00 TS 13.5500 134.025 45 990 tokyo main 935 902 OOOO__________ jtwc_wp WP121997 13.4000 134.000 55 0 13.7000 134.100 3 45 990 0 9 170 170 0 13.7000 134.100 3 48 985 13.4000 133.900 TS 45 990 6 277
1997202N04152 1997 57 WP MM TINA 1997-08-01 21:00:00 TS 13.5994 133.699 main 902 872 PPPP__________ WP121997 13.4925 133.808 55 0 13.7351 133.665 3 47 987 0 9 195 155 13.7352 133.673 3 53 982 13.4350 133.650 TS 45 990 7 281
1997202N04152 1997 57 WP MM TINA 1997-08-02 00:00:00 TS 13.6750 133.350 50 985 tokyo main 872 840 OOOO__________ jtwc_wp WP121997 13.6000 133.600 55 0 13.8000 133.200 4 50 985 0 1 220 140 0 13.8000 133.200 3 58 980 13.5000 133.400 TS 45 990 7 285
1997202N04152 1997 57 WP MM TINA 1997-08-02 03:00:00 TS 13.7693 133.046 main 832 811 PPPP__________ WP121997 13.7000 133.407 55 0 13.8925 132.813 4 50 985 0 1 220 140 13.8925 132.813 3 58 980 13.5925 133.150 TS 45 990 6 290
1997202N04152 1997 57 WP MM TINA 1997-08-02 06:00:00 TS 13.8750 132.775 50 985 tokyo main 813 792 OOOO__________ jtwc_wp WP121997 13.8000 133.200 55 0 14.0000 132.500 4 50 985 0 1 220 140 0 14.0000 132.500 3 58 980 13.7000 132.900 TS 45 990 5 293
1997202N04152 1997 57 WP MM TINA 1997-08-02 09:00:00 TS 13.9768 132.539 main 784 766 PPPP__________ WP121997 13.9000 132.965 55 0 14.1074 132.270 4 52 982 0 1 235 145 14.1074 132.270 3 58 980 13.7925 132.650 TS 47 987 5 295
1997202N04152 1997 57 WP MM TINA 1997-08-02 12:00:00 TS 14.0750 132.325 55 980 tokyo main 766 745 OOOO__________ jtwc_wp WP121997 14.0000 132.700 55 0 14.2000 132.100 4 55 980 9 50 50 1 250 150 0 14.2000 132.100 3 58 980 13.9000 132.400 STS 50 985 5 293
1997202N04152 1997 57 WP MM TINA 1997-08-02 15:00:00 TS 14.1550 132.111 main 749 728 PPPP__________ WP121997 14.0850 132.407 55 0 14.2500 131.942 4 55 980 9 50 50 1 250 150 14.2425 131.942 3 58 980 14.0425 132.150 STS 52 982 4 293
1997202N04152 1997 57 WP MM TINA 1997-08-02 18:00:00 TS 14.2500 131.900 55 980 tokyo main 731 711 OOOO__________ jtwc_wp WP121997 14.2000 132.100 55 0 14.3000 131.800 4 55 980 9 50 50 1 250 150 0 14.3000 131.800 3 58 980 14.2000 131.900 STS 55 980 5 299
1997202N04152 1997 57 WP MM TINA 1997-08-02 21:00:00 TS 14.3774 131.701 main 715 698 PPPP__________ WP121997 14.3775 131.800 57 0 14.3699 131.672 4 57 977 9 55 55 1 265 155 14.4274 131.672 3 58 980 14.3349 131.657 STS 55 980 5 306
1997202N04152 1997 57 WP MM TINA 1997-08-03 00:00:00 TS 14.5500 131.475 60 975 tokyo main 702 677 OOOO__________ jtwc_wp WP121997 14.6000 131.500 60 0 14.5000 131.500 4 60 975 9 60 60 1 280 160 0 14.6000 131.500 3 58 980 14.5000 131.400 STS 55 980 6 308
1997202N04152 1997 57 WP MM TINA 1997-08-03 03:00:00 TS 14.7669 131.190 main 681 662 PPPP__________ WP121997 14.8275 131.200 60 0 14.7200 131.230 4 60 975 9 60 60 1 280 160 14.7925 131.223 3 58 980 14.7275 131.107 STS 55 980 8 309
1997202N04152 1997 57 WP MM TINA 1997-08-03 06:00:00 TS 15.0250 130.875 60 975 tokyo main 662 645 OOOO__________ jtwc_wp WP121997 15.1000 130.900 60 0 15.0000 130.900 4 60 975 9 60 60 1 280 160 0 15.0000 130.900 3 58 980 15.0000 130.800 STS 55 980 8 310
1997202N04152 1997 57 WP MM TINA 1997-08-03 09:00:00 TS 15.2919 130.553 main 651 636 PPPP__________ WP121997 15.4350 130.600 62 0 15.2850 130.542 4 60 975 9 60 60 1 290 165 15.1625 130.577 3 58 980 15.2850 130.492 STS 57 977 8 314
1997202N04152 1997 57 WP MM TINA 1997-08-03 12:00:00 TS 15.6000 130.250 60 975 tokyo main 643 634 OOOO__________ jtwc_wp WP121997 15.8000 130.300 65 1 15.6000 130.200 4 60 975 9 60 60 1 300 170 0 15.4000 130.300 3 58 980 15.6000 130.200 STS 60 975 8 322
1997202N04152 1997 57 WP MM TINA 1997-08-03 15:00:00 TS 15.9580 130.018 main 645 639 PPPP__________ WP121997 16.1424 130.007 67 1 15.9349 129.942 4 60 975 9 60 60 1 300 170 15.8198 130.172 3 58 980 15.9349 129.950 STS 60 975 9 329
1997202N04152 1997 57 WP MM TINA 1997-08-03 18:00:00 TS 16.3500 129.775 60 975 tokyo main 643 625 OOOO__________ jtwc_wp WP121997 16.5000 129.700 70 1 16.3000 129.700 4 60 975 9 60 60 1 300 170 0 16.3000 130.000 3 58 980 16.3000 129.700 STS 60 975 10 324
1997202N04152 1997 57 WP MM TINA 1997-08-03 21:00:00 TS 16.7444 129.433 main 621 614 PPPP__________ WP121997 16.9000 129.350 72 1 16.6925 129.415 4 62 972 9 65 65 1 312 175 16.6928 129.558 3 61 977 16.6925 129.407 STS 60 975 10 320
1997202N04152 1997 57 WP MM TINA 1997-08-04 00:00:00 TS 17.1500 129.075 65 970 tokyo main 624 614 OOOO__________ jtwc_wp WP121997 17.3000 129.000 75 1 17.1000 129.100 5 65 970 9 70 70 1 325 180 0 17.1000 129.100 4 64 975 17.1000 129.100 STS 60 975 10 323
1997202N04152 1997 57 WP MM TINA 1997-08-04 03:00:00 TS 17.5680 128.784 main 627 619 PPPP__________ WP121997 17.6574 128.692 75 1 17.5075 128.750 5 65 970 9 70 70 1 325 180 17.6072 128.892 4 64 975 17.5000 128.800 STS 60 975 10 326
1997202N04152 1997 57 WP MM TINA 1997-08-04 06:00:00 TS 17.9750 128.500 65 970 tokyo main 634 621 OOOO__________ jtwc_wp WP121997 18.0000 128.400 75 1 17.9000 128.400 5 65 970 9 70 70 1 325 180 0 18.1000 128.700 4 64 975 17.9000 128.500 STS 60 975 10 323
1997202N04152 1997 57 WP MM TINA 1997-08-04 09:00:00 TS 18.3544 128.167 main 622 590 PPPP__________ WP121997 18.3500 128.092 75 1 18.2649 128.085 5 65 970 9 70 70 1 325 190 18.4952 128.300 4 64 975 18.3075 128.192 STS 60 975 10 320
1997202N04152 1997 57 WP MM TINA 1997-08-04 12:00:00 TS 18.7000 127.850 65 970 tokyo main 591 561 OOOO__________ jtwc_wp WP121997 18.7000 127.800 75 1 18.6000 127.800 5 65 970 9 70 70 1 325 200 0 18.8000 127.900 4 64 975 18.7000 127.900 STS 60 975 8 320
1997202N04152 1997 57 WP MM TINA 1997-08-04 15:00:00 TS 18.9962 127.592 main 562 544 PPPP__________ WP121997 19.0500 127.527 77 1 18.8925 127.527 5 65 970 9 70 70 1 325 200 18.9848 127.677 4 64 975 19.0575 127.635 STS 60 975 8 323
1997202N04152 1997 57 WP MM TINA 1997-08-04 18:00:00 TS 19.3000 127.375 65 970 tokyo main 546 529 OOOO__________ jtwc_wp WP121997 19.4000 127.300 80 1 19.2000 127.300 5 65 970 9 70 70 1 325 200 0 19.2000 127.500 4 64 975 19.4000 127.400 STS 60 975 8 330
1997202N04152 1997 57 WP MM TINA 1997-08-04 21:00:00 TS 19.6725 127.176 main 535 524 PPPP__________ WP121997 19.7424 127.135 82 1 19.5774 127.135 5 67 967 9 75 75 1 325 200 19.6200 127.250 4 66 972 19.7500 127.185 STS 62 972 9 335
1997202N04152 1997 57 WP MM TINA 1997-08-05 00:00:00 TS 20.0750 127.000 70 965 tokyo main 528 522 OOOO__________ jtwc_wp WP121997 20.1000 127.000 85 2 20.0000 127.000 5 70 965 9 80 80 2 325 200 0 20.1000 127.000 4 68 970 20.1000 127.000 T 65 970 9 338
1997202N04152 1997 57 WP MM TINA 1997-08-05 03:00:00 TS 20.4806 126.830 main 527 527 PPPP__________ WP121997 20.5000 126.843 87 2 20.4575 126.857 5 70 965 9 80 80 2 337 200 20.5150 126.777 4 72 965 20.4500 126.842 T 67 967 9 339
1997202N04152 1997 57 WP MM TINA 1997-08-05 06:00:00 TS 20.8750 126.675 70 965 tokyo main 538 529 OOOO__________ jtwc_wp WP121997 20.9000 126.700 90 2 20.9000 126.700 5 70 965 9 80 80 2 350 200 0 20.9000 126.600 4 77 960 20.8000 126.700 T 70 965 8 340
1997202N04152 1997 57 WP MM TINA 1997-08-05 09:00:00 TS 21.2454 126.528 main 539 539 PPPP__________ WP121997 21.2575 126.585 90 2 21.2943 126.507 5 70 965 9 80 80 2 362 200 21.2725 126.485 4 82 957 21.1575 126.535 T 72 962 7 340
1997202N04152 1997 57 WP MM TINA 1997-08-05 12:00:00 TS 21.5750 126.400 70 965 tokyo main 540 523 OOOO__________ jtwc_wp WP121997 21.6000 126.500 90 2 21.6000 126.300 5 70 965 9 80 80 3 375 200 0 21.6000 126.400 5 87 955 21.5000 126.400 T 75 960 6 339
1997202N04152 1997 57 WP MM TINA 1997-08-05 15:00:00 TS 21.8350 126.287 70 965 tokyo main 523 515 POPP__________ WP121997 21.9350 126.435 90 2 21.8000 126.100 5 70 965 9 80 80 3 375 200 0 21.8200 126.285 5 82 957 21.7850 126.327 T 77 957 6 347
1997202N04152 1997 57 WP MM TINA 1997-08-05 18:00:00 TS 22.1500 126.250 70 965 tokyo main 512 486 OOOO__________ jtwc_wp WP121997 22.3000 126.400 90 2 22.1000 126.100 5 70 965 9 80 80 3 375 200 0 22.1000 126.200 4 77 960 22.1000 126.300 T 80 955 8 355
1997202N04152 1997 57 WP MM TINA 1997-08-05 21:00:00 TS 22.6206 126.212 70 965 tokyo main 486 468 POPP__________ WP121997 22.7350 126.392 90 2 22.6000 126.000 5 70 965 9 80 80 3 375 200 0 22.6200 126.170 4 77 960 22.5275 126.285 T 80 955 10 0
1997202N04152 1997 57 WP MM TINA 1997-08-06 00:00:00 TS 23.1250 126.275 75 960 tokyo main 473 457 OOOO__________ jtwc_wp WP121997 23.2000 126.400 90 2 23.1000 126.200 5 75 960 4 100 70 4 400 200 0 23.2000 126.200 4 77 960 23.0000 126.300 T 80 955 10 7
1997202N04152 1997 57 WP MM TINA 1997-08-06 03:00:00 TS 23.5931 126.337 75 960 tokyo main 457 455 POPP__________ WP121997 23.6575 126.400 90 2 23.6000 126.300 5 75 960 4 100 70 4 400 200 0 23.6650 126.300 4 77 960 23.4500 126.350 T 80 955 9 7
1997202N04152 1997 57 WP MM TINA 1997-08-06 06:00:00 TS 24.0500 126.400 75 960 tokyo main 455 447 OOOO__________ jtwc_wp WP121997 24.1000 126.400 90 2 24.1000 126.400 5 75 960 4 100 70 4 400 200 0 24.1000 126.400 4 77 960 23.9000 126.400 T 80 955 9 3
1997202N04152 1997 57 WP MM TINA 1997-08-06 09:00:00 TS 24.4806 126.404 75 960 tokyo main 447 443 POPP__________ WP121997 24.5075 126.393 87 2 24.5000 126.400 5 75 960 4 100 70 4 400 200 0 24.5650 126.415 4 77 960 24.3500 126.408 T 80 955 9 2
1997202N04152 1997 57 WP MM TINA 1997-08-06 12:00:00 TS 24.9000 126.400 75 960 tokyo main 443 443 OOOO__________ jtwc_wp WP121997 24.9000 126.400 85 2 24.9000 126.400 5 75 960 5 100 70 5 400 200 0 25.0000 126.400 4 77 960 24.8000 126.400 T 80 955 8 0
1997202N04152 1997 57 WP MM TINA 1997-08-06 15:00:00 TS 25.2906 126.387 75 960 tokyo main 443 443 POPP__________ WP121997 25.2775 126.450 85 2 25.3000 126.300 5 75 960 5 100 70 5 400 200 0 25.3350 126.400 4 77 960 25.2500 126.400 T 80 955 8 1
1997202N04152 1997 57 WP MM TINA 1997-08-06 18:00:00 TS 25.7250 126.400 75 960 tokyo main 448 448 OOOO__________ jtwc_wp WP121997 25.7000 126.500 85 2 25.8000 126.300 5 75 960 5 100 70 5 400 200 0 25.7000 126.400 4 77 960 25.7000 126.400 T 80 955 10 3
1997202N04152 1997 57 WP MM TINA 1997-08-06 21:00:00 TS 26.2375 126.431 75 960 tokyo main 460 460 POPP__________ WP121997 26.2575 126.515 82 1 26.3000 126.400 5 75 960 5 100 70 5 400 200 0 26.2425 126.407 4 77 960 26.1500 126.400 T 77 957 10 0
1997202N04152 1997 57 WP MM TINA 1997-08-07 00:00:00 TS 26.7500 126.425 75 955 tokyo main 483 479 OOOO__________ jtwc_wp WP121997 26.8000 126.500 80 1 26.8000 126.400 5 75 955 5 100 70 5 400 200 0 26.8000 126.400 4 77 960 26.6000 126.400 T 75 960 9 358
1997202N04152 1997 57 WP MM TINA 1997-08-07 03:00:00 TS 27.1612 126.381 75 955 tokyo main 485 461 POPP__________ WP121997 27.1575 126.465 80 1 27.2000 126.300 5 75 955 5 100 70 5 400 200 0 27.2375 126.358 4 72 965 27.0500 126.400 T 75 960 8 354
1997202N04152 1997 57 WP MM TINA 1997-08-07 06:00:00 TS 27.5500 126.325 75 955 tokyo main 456 434 OOOO__________ jtwc_wp WP121997 27.5000 126.400 80 1 27.6000 126.200 5 75 955 5 100 70 5 400 200 0 27.6000 126.300 4 68 970 27.5000 126.400 T 75 960 8 350
1997202N04152 1997 57 WP MM TINA 1997-08-07 09:00:00 TS 27.9375 126.234 75 955 tokyo main 434 421 POPP__________ WP121997 28.0000 126.293 77 1 27.9000 126.000 5 75 955 5 100 70 5 400 200 0 27.8925 126.243 4 68 970 27.9575 126.400 T 75 960 8 352
1997202N04152 1997 57 WP MM TINA 1997-08-07 12:00:00 TS 28.3500 126.200 75 960 tokyo main 418 411 OOOO__________ jtwc_wp WP121997 28.5000 126.200 75 1 28.3000 126.000 5 75 960 5 100 70 5 400 200 0 28.2000 126.200 4 68 970 28.4000 126.400 T 75 960 8 0
1997202N04152 1997 57 WP MM TINA 1997-08-07 15:00:00 TS 28.7619 126.225 75 960 tokyo main 410 407 POPP__________ WP121997 28.8350 126.207 72 1 28.8000 126.100 5 75 960 5 100 70 5 400 200 0 28.6200 126.192 4 66 972 28.7925 126.400 T 72 962 8 3
1997202N04152 1997 57 WP MM TINA 1997-08-07 18:00:00 TS 29.1500 126.250 75 960 tokyo main 416 401 OOOO__________ jtwc_wp WP121997 29.2000 126.200 70 1 29.1000 126.200 5 75 960 5 100 70 5 400 200 0 29.1000 126.200 4 64 975 29.2000 126.400 T 70 965 9 359
1997202N04152 1997 57 WP MM TINA 1997-08-07 21:00:00 TS 29.6313 126.211 75 960 tokyo main 401 334 POPP__________ WP121997 29.7701 126.043 67 1 29.5000 126.200 5 75 960 5 100 70 5 400 200 0 29.5775 126.200 4 61 977 29.6775 126.400 T 67 967 11 356
1997202N04152 1997 57 WP MM TINA 1997-08-08 00:00:00 TS 30.2000 126.175 70 965 tokyo main 334 279 OOOO__________ jtwc_wp WP121997 30.4000 125.900 65 1 30.1000 126.200 5 70 965 5 90 60 5 400 200 0 30.1000 126.200 3 58 980 30.2000 126.400 T 65 970 11 358
1997202N04152 1997 57 WP MM TINA 1997-08-08 03:00:00 TS 30.7481 126.174 70 965 tokyo main 279 212 POPP__________ WP121997 30.9574 125.897 62 0 30.6000 126.200 5 70 965 5 90 60 5 400 200 0 30.6925 126.200 3 58 980 30.7425 126.400 T 62 972 12 1
1997202N04152 1997 57 WP MM TINA 1997-08-08 06:00:00 TS 31.3500 126.200 65 970 tokyo main 200 145 OOOO__________ jtwc_wp WP121997 31.5000 126.000 60 0 31.3000 126.200 5 65 970 9 70 70 5 400 200 0 31.3000 126.200 3 58 980 31.3000 126.400 STS 60 975 12 2
1997202N04152 1997 57 WP MM TINA 1997-08-08 09:00:00 TS 31.8955 126.208 65 970 tokyo main 145 89 POPP__________ WP121997 32.0272 126.134 57 0 31.9000 126.200 5 65 970 9 70 70 5 400 200 0 31.8273 126.141 3 56 980 31.8274 126.356 STS 57 977 11 5
1997202N04152 1997 57 WP MM TINA 1997-08-08 12:00:00 TS 32.4500 126.300 60 975 tokyo main 78 11 OOOO__________ jtwc_wp WP121997 32.6000 126.400 55 0 32.4000 126.200 4 60 975 9 60 60 5 350 180 0 32.4000 126.200 3 54 980 32.4000 126.400 STS 55 980 13 15
1997202N04152 1997 57 WP MM TINA 1997-08-08 15:00:00 TS 33.1377 126.593 55 980 tokyo main 11 0 POPP__________ WP121997 33.2623 126.826 50 0 33.1000 126.500 4 55 980 9 50 50 5 300 150 0 33.1270 126.481 3 46 982 33.0616 126.567 STS 55 980 16 25
1997202N04152 1997 57 WP MM TINA 1997-08-08 18:00:00 TS 33.9000 127.100 50 985 tokyo main 48 0 OOOO__________ jtwc_wp WP121997 34.0000 127.400 45 0 33.9000 127.000 4 50 985 0 5 300 150 0 33.9000 127.000 2 38 985 33.8000 127.000 STS 55 980 18 34
1997202N04152 1997 57 WP MM TINA 1997-08-08 21:00:00 TS 34.6136 127.807 50 985 tokyo main 0 0 POPP__________ WP121997 34.7608 127.991 42 0 34.6000 127.800 4 50 985 0 5 300 150 0 34.5467 127.684 2 36 987 34.5469 127.753 STS 52 982 20 41
1997202N04152 1997 57 WP MM TINA 1997-08-09 00:00:00 TS 35.4000 128.693 50 988 tokyo main 0 0 OOOO__________ jtwc_wp WP121997 35.6000 128.800 40 0 35.3000 128.600 4 50 988 0 5 300 150 0 35.3000 128.600 2 34 990 35.4000 128.800 STS 50 985 25 42
1997202N04152 1997 57 WP MM TINA 1997-08-09 03:00:00 TS 36.4501 129.824 45 990 tokyo main 34 34 POPP__________ WP121997 36.5494 129.923 40 0 36.5000 129.800 3 45 990 0 5 300 150 0 36.3219 129.640 2 34 990 36.4082 130.041 STS 47 987 29 43
1997202N04152 1997 57 WP MM TINA 1997-08-09 06:00:00 TS 37.5308 131.123 45 990 tokyo main 156 156 OOOO__________ jtwc_wp WP121997 37.5000 131.300 40 0 37.6000 131.000 3 45 990 0 5 300 150 0 37.5000 131.000 2 34 990 37.5000 131.400 TS 45 990 31 47
1997202N04152 1997 57 WP MM TINA 1997-08-09 09:00:00 MX 38.5741 132.725 990 tokyo main 329 307 POP___________ WP121997 38.3072 132.809 40 0 38.7000 132.600 6 990 0 0 0 38.7151 132.765 2 34 992 TS 35 53
1997202N04152 1997 57 WP MM TINA 1997-08-09 12:00:00 ET 39.6333 134.667 990 tokyo main 305 289 OOO___________ jtwc_wp WP121997 39.1000 134.400 40 0 39.9000 134.800 6 990 0 0 0 39.9000 134.800 9 34 995 36 54
1997202N04152 1997 57 WP MM TINA 1997-08-09 15:00:00 ET 40.6968 136.489 main 284 124 PPP___________ WP121997 39.9947 135.880 40 0 41.0470 136.824 6 990 0 0 41.0485 136.763 9 34 995 36 56
1997202N04152 1997 57 WP MM TINA 1997-08-09 18:00:00 ET 41.6273 138.591 990 tokyo main 116 0 OOO___________ jtwc_wp WP121997 40.9000 137.500 40 0 41.9000 139.000 6 990 0 0 0 41.9000 139.000 9 34 995 39 68
1997202N04152 1997 57 WP MM TINA 1997-08-09 21:00:00 ET 42.1162 141.300 main 33 0 PPP___________ WP121997 41.7354 139.439 42 0 42.2113 141.765 6 993 0 0 42.2113 141.765 9 34 995 42 82
1997202N04152 1997 57 WP MM TINA 1997-08-10 00:00:00 ET 42.2333 144.267 996 tokyo main 74 74 OOO___________ jtwc_wp WP121997 42.5000 141.600 45 0 42.2000 144.600 6 996 0 0 0 42.2000 144.600 9 34 995 42 89
1997202N04152 1997 57 WP MM TINA 1997-08-10 03:00:00 ET 42.1989 147.029 main 165 165 _PP___________ WP121997 -1 42.1989 147.029 6 996 0 0 42.1989 147.029 9 34 995 38 92
1997202N04152 1997 57 WP MM TINA 1997-08-10 06:00:00 ET 42.1000 149.400 996 tokyo main 329 329 _OO___________ -1 42.1000 149.400 6 996 0 0 0 42.1000 149.400 9 34 995 38 95
1997202N04152 1997 57 WP MM TINA 1997-08-10 09:00:00 ET 41.8553 152.133 main 453 453 _PP___________ -1 41.8553 152.133 6 996 0 0 41.8553 152.133 9 34 996 39 97
1997202N04152 1997 57 WP MM TINA 1997-08-10 12:00:00 ET 41.6000 154.600 996 tokyo main 593 593 _OO___________ -1 41.6000 154.600 6 996 0 0 0 41.6000 154.600 9 34 998 32 96
1997202N04152 1997 57 WP MM TINA 1997-08-10 15:00:00 ET 41.4964 156.365 main 698 698 _PP___________ -1 41.4964 156.365 6 996 0 0 41.4964 156.365 9 31 998 23 92
1997202N04152 1997 57 WP MM TINA 1997-08-10 18:00:00 ET 41.5000 157.700 996 tokyo main 774 _OO___________ -1 41.5000 157.700 6 996 0 0 0 41.5000 157.700 9 29 998 20 90

デジタル台風データ・検索

IBTrACS Databaseについて

本データベースは、米国NOAAが公開する1842年以降の世界の熱帯低気圧のベストトラックデータアーカイブInternational Best Track Archive for Climate Stewardship (IBTrACS)を、ウェブで閲覧しやすい形式に変換したものです。

最終更新日:2021-10-08